createdAt,value
2022-10-10T00:01:01.894Z,7.97
2022-10-10T00:03:29.034Z,9.75
2022-10-10T00:05:56.200Z,12.35
2022-10-10T00:08:23.227Z,10.57
2022-10-10T00:10:53.124Z,9.27
2022-10-10T00:13:20.267Z,10.70
2022-10-10T00:15:49.859Z,11.67
2022-10-10T00:18:17.931Z,10.50
2022-10-10T00:20:45.121Z,10.20
2022-10-10T00:23:18.849Z,10.60
2022-10-10T00:25:45.871Z,9.35
2022-10-10T00:28:12.945Z,10.88
2022-10-10T00:30:42.332Z,8.63
2022-10-10T00:33:12.641Z,9.40
2022-10-10T00:35:39.723Z,8.95
2022-10-10T00:38:07.124Z,10.95
2022-10-10T00:40:34.295Z,11.13
2022-10-10T00:43:01.344Z,10.70
2022-10-10T00:45:31.662Z,10.45
2022-10-10T00:48:05.462Z,9.75
2022-10-10T00:50:34.010Z,11.70
2022-10-10T00:53:04.272Z,9.55
2022-10-10T00:55:31.316Z,11.00
2022-10-10T00:58:00.616Z,8.88
2022-10-10T01:00:27.655Z,9.98
2022-10-10T01:02:54.818Z,10.10
2022-10-10T01:05:21.961Z,9.20
2022-10-10T01:07:49.106Z,10.27
2022-10-10T01:10:17.805Z,10.93
2022-10-10T01:12:50.950Z,10.18
2022-10-10T01:15:27.211Z,11.27
2022-10-10T01:18:03.079Z,11.07
2022-10-10T01:20:45.242Z,10.23
2022-10-10T01:23:36.158Z,12.27
2022-10-10T01:26:27.932Z,12.32
2022-10-10T01:29:00.710Z,9.40
2022-10-10T01:31:29.995Z,10.73
2022-10-10T01:34:05.945Z,10.75
2022-10-10T01:36:43.981Z,10.85
2022-10-10T01:39:19.116Z,11.32
2022-10-10T01:41:56.481Z,10.15
2022-10-10T01:44:23.554Z,10.30
2022-10-10T01:46:50.657Z,10.00
2022-10-10T01:49:18.008Z,9.40
2022-10-10T01:51:53.117Z,9.32
2022-10-10T01:54:26.332Z,11.30
2022-10-10T01:57:05.519Z,12.05
2022-10-10T01:59:51.129Z,11.37
2022-10-10T02:02:29.657Z,10.00
2022-10-10T02:05:01.546Z,10.13
2022-10-10T02:07:48.958Z,11.50
2022-10-10T02:10:19.327Z,11.05
2022-10-10T02:12:49.460Z,9.77
2022-10-10T02:15:27.352Z,11.95
2022-10-10T02:17:55.307Z,10.57
2022-10-10T02:20:26.986Z,9.55
2022-10-10T02:22:54.557Z,9.45
2022-10-10T02:25:24.236Z,9.90
2022-10-10T02:28:08.120Z,12.18
2022-10-10T02:30:39.196Z,11.27
2022-10-10T02:33:09.455Z,11.23
2022-10-10T02:35:38.671Z,9.75
2022-10-10T02:38:06.958Z,11.57
2022-10-10T02:40:35.400Z,10.73
2022-10-10T02:43:06.132Z,11.45
2022-10-10T02:45:33.502Z,10.02
2022-10-10T02:48:04.178Z,10.57
2022-10-10T02:50:31.969Z,9.65
2022-10-10T02:52:59.578Z,10.23
2022-10-10T02:55:27.069Z,10.68
2022-10-10T02:57:54.077Z,11.73
2022-10-10T03:00:21.498Z,10.30
2022-10-10T03:02:57.635Z,11.80
2022-10-10T03:05:24.649Z,9.05
2022-10-10T03:07:51.755Z,11.45
2022-10-10T03:10:18.821Z,8.07
2022-10-10T03:12:48.615Z,10.50
2022-10-10T03:15:15.967Z,10.57
2022-10-10T03:17:44.939Z,11.63
2022-10-10T03:20:11.965Z,10.98
2022-10-10T03:22:41.314Z,9.90
2022-10-10T03:25:08.465Z,11.43
2022-10-10T03:27:35.500Z,10.13
2022-10-10T03:30:02.540Z,10.18
2022-10-10T03:32:34.788Z,9.63
2022-10-10T03:35:01.881Z,10.57
2022-10-10T03:37:29.054Z,10.15
2022-10-10T03:39:56.076Z,9.98
2022-10-10T03:42:23.113Z,10.73
2022-10-10T03:44:50.154Z,9.45
2022-10-10T03:47:17.246Z,8.57
2022-10-10T03:49:44.321Z,11.93
2022-10-10T03:52:11.423Z,11.10
2022-10-10T03:54:38.443Z,11.40
2022-10-10T03:57:08.161Z,9.93
2022-10-10T03:59:35.305Z,10.32
2022-10-10T04:02:02.374Z,11.10
2022-10-10T04:04:32.736Z,9.02
2022-10-10T04:06:59.830Z,9.43
2022-10-10T04:09:26.911Z,9.37
2022-10-10T04:11:56.884Z,10.50
2022-10-10T04:14:23.951Z,10.52
2022-10-10T04:16:51.060Z,11.25
2022-10-10T04:19:18.759Z,11.38
2022-10-10T04:21:45.784Z,8.98
2022-10-10T04:24:12.834Z,11.93
2022-10-10T04:26:39.838Z,11.82
2022-10-10T04:29:07.655Z,11.15
2022-10-10T04:31:35.818Z,11.30
2022-10-10T04:34:02.986Z,9.48
2022-10-10T04:36:34.058Z,9.88
2022-10-10T04:39:01.118Z,10.50
2022-10-10T04:41:29.380Z,10.60
2022-10-10T04:43:56.440Z,10.88
2022-10-10T04:46:23.491Z,9.45
2022-10-10T04:48:50.605Z,10.55
2022-10-10T04:51:17.669Z,12.52
2022-10-10T04:53:50.070Z,10.48
2022-10-10T04:56:17.552Z,10.88
2022-10-10T04:58:44.651Z,12.18
2022-10-10T05:01:13.254Z,10.45
2022-10-10T05:03:44.013Z,11.20
2022-10-10T05:06:11.907Z,9.73
2022-10-10T05:08:38.929Z,9.88
2022-10-10T05:11:06.030Z,11.65
2022-10-10T05:13:33.085Z,12.95
2022-10-10T05:16:03.100Z,11.57
2022-10-10T05:18:33.315Z,10.70
2022-10-10T05:21:03.927Z,10.65
2022-10-10T05:23:33.983Z,10.57
2022-10-10T05:26:01.010Z,9.68
2022-10-10T05:28:28.146Z,11.20
2022-10-10T05:30:55.296Z,10.88
2022-10-10T05:33:22.310Z,10.52
2022-10-10T05:35:49.419Z,11.50
2022-10-10T05:38:16.535Z,11.30
2022-10-10T05:40:43.684Z,10.75
2022-10-10T05:43:13.157Z,12.55
2022-10-10T05:45:40.225Z,13.48
2022-10-10T05:48:07.291Z,11.00
2022-10-10T05:50:36.646Z,11.85
2022-10-10T05:53:03.723Z,10.88
2022-10-10T05:55:30.841Z,10.40
2022-10-10T05:57:57.860Z,13.45
2022-10-10T06:00:24.984Z,11.60
2022-10-10T06:02:52.440Z,10.77
2022-10-10T06:05:20.108Z,11.18
2022-10-10T06:08:04.543Z,11.70
2022-10-10T06:10:38.727Z,10.70
2022-10-10T06:13:08.152Z,9.95
2022-10-10T06:15:36.232Z,11.77
2022-10-10T06:18:03.672Z,11.07
2022-10-10T06:20:30.695Z,10.13
2022-10-10T06:22:57.728Z,12.18
2022-10-10T06:25:39.552Z,13.50
2022-10-10T06:28:07.545Z,9.38
2022-10-10T06:30:35.138Z,12.30
2022-10-10T06:33:02.324Z,11.68
2022-10-10T06:35:29.703Z,11.80
2022-10-10T06:37:56.764Z,10.68
2022-10-10T06:40:23.813Z,9.23
2022-10-10T06:42:51.128Z,12.20
2022-10-10T06:45:18.286Z,10.90
2022-10-10T06:47:45.298Z,14.88
2022-10-10T06:50:12.357Z,10.85
2022-10-10T06:52:41.267Z,11.77
2022-10-10T06:55:08.598Z,12.15
2022-10-10T06:57:35.620Z,13.68
2022-10-10T07:00:02.665Z,12.30
2022-10-10T07:02:29.727Z,9.90
2022-10-10T07:04:56.733Z,14.35
2022-10-10T07:07:23.785Z,12.15
2022-10-10T07:09:56.732Z,11.17
2022-10-10T07:12:23.789Z,10.85
2022-10-10T07:14:50.784Z,12.23
2022-10-10T07:17:17.806Z,10.77
2022-10-10T07:19:44.845Z,12.80
2022-10-10T07:22:11.865Z,11.88
2022-10-10T07:24:38.925Z,16.97
2022-10-10T07:27:12.099Z,11.65
2022-10-10T07:29:41.696Z,12.38
2022-10-10T07:32:09.701Z,13.70
2022-10-10T07:34:40.645Z,12.85
2022-10-10T07:37:07.672Z,12.23
2022-10-10T07:39:35.783Z,11.00
2022-10-10T07:42:02.798Z,10.23
2022-10-10T07:44:34.286Z,12.23
2022-10-10T07:47:01.699Z,13.10
2022-10-10T07:49:28.883Z,8.98
2022-10-10T07:52:00.518Z,11.02
2022-10-10T07:54:28.777Z,11.35
2022-10-10T07:56:57.047Z,11.95
2022-10-10T07:59:24.563Z,13.68
2022-10-10T08:01:51.812Z,10.05
2022-10-10T08:04:21.461Z,9.30
2022-10-10T08:06:48.994Z,11.82
2022-10-10T08:09:17.306Z,10.65
2022-10-10T08:11:44.455Z,9.95
2022-10-10T08:14:11.568Z,10.00
2022-10-10T08:16:38.646Z,10.65
2022-10-10T08:19:05.776Z,12.17
2022-10-10T08:21:36.590Z,11.95
2022-10-10T08:24:05.986Z,10.15
2022-10-10T08:26:33.223Z,10.63
2022-10-10T08:29:00.276Z,11.60
2022-10-10T08:31:27.516Z,10.52
2022-10-10T08:33:57.233Z,12.40
2022-10-10T08:36:24.916Z,11.00
2022-10-10T08:38:53.405Z,13.77
2022-10-10T08:41:39.587Z,12.88
2022-10-10T08:44:13.131Z,11.43
2022-10-10T08:46:43.076Z,11.60
2022-10-10T08:49:17.129Z,12.67
2022-10-10T08:51:47.163Z,11.80
2022-10-10T08:54:22.468Z,12.45
2022-10-10T08:56:52.285Z,15.63
2022-10-10T08:59:23.948Z,13.80
2022-10-10T09:02:19.354Z,11.68
2022-10-10T09:04:39.780Z,13.07
2022-10-10T09:07:18.480Z,13.18
2022-10-10T09:09:57.792Z,11.60
2022-10-10T09:12:38.829Z,12.27
2022-10-10T09:15:24.687Z,15.00
2022-10-10T09:18:10.551Z,15.82
2022-10-10T09:20:56.664Z,12.77
2022-10-10T09:23:35.198Z,14.07
2022-10-10T09:26:03.118Z,12.15
2022-10-10T09:28:40.943Z,11.63
2022-10-10T09:31:12.168Z,12.45
2022-10-10T09:34:02.458Z,14.20
2022-10-10T09:36:34.163Z,12.83
2022-10-10T09:39:03.274Z,13.70
2022-10-10T09:41:56.828Z,12.53
2022-10-10T09:44:23.942Z,12.55
2022-10-10T09:46:51.080Z,12.52
2022-10-10T09:49:19.452Z,13.63
2022-10-10T09:51:47.424Z,11.63
2022-10-10T09:54:22.249Z,14.43
2022-10-10T09:56:56.730Z,12.02
2022-10-10T09:59:37.704Z,13.80
2022-10-10T10:02:12.448Z,13.48
2022-10-10T10:04:39.742Z,12.05
2022-10-10T10:07:18.331Z,11.05
2022-10-10T10:09:49.540Z,13.55
2022-10-10T10:12:19.418Z,9.45
2022-10-10T10:14:46.992Z,13.87
2022-10-10T10:17:15.845Z,14.23
2022-10-10T10:19:44.168Z,14.85
2022-10-10T10:22:29.825Z,13.80
2022-10-10T10:24:56.947Z,12.45
2022-10-10T10:27:25.598Z,10.75
2022-10-10T10:29:57.928Z,11.95
2022-10-10T10:32:43.750Z,9.63
2022-10-10T10:35:17.541Z,12.20
2022-10-10T10:37:44.588Z,12.07
2022-10-10T10:40:30.563Z,14.38
2022-10-10T10:43:06.446Z,10.68
2022-10-10T10:45:43.945Z,15.18
2022-10-10T10:48:34.611Z,9.65
2022-10-10T10:51:25.308Z,12.45
2022-10-10T10:54:03.589Z,12.82
2022-10-10T10:56:30.634Z,11.63
2022-10-10T10:59:36.263Z,11.93
2022-10-10T11:02:00.897Z,14.43
2022-10-10T11:05:22.784Z,12.25
2022-10-10T11:07:21.253Z,12.18
2022-10-10T11:09:51.574Z,13.02
2022-10-10T11:12:41.615Z,13.07
2022-10-10T11:15:14.378Z,10.90
2022-10-10T11:17:44.552Z,11.32
2022-10-10T11:20:21.083Z,10.27
2022-10-10T11:22:51.247Z,12.93
2022-10-10T11:25:23.825Z,10.05
2022-10-10T11:28:03.836Z,10.55
2022-10-10T11:30:34.128Z,10.23
2022-10-10T11:33:06.641Z,10.43
2022-10-10T11:35:36.337Z,7.70
2022-10-10T11:38:11.265Z,9.68
2022-10-10T11:41:00.300Z,7.53
2022-10-10T11:43:36.751Z,10.30
2022-10-10T11:46:30.475Z,10.05
2022-10-10T11:49:12.271Z,8.70
2022-10-10T11:52:21.325Z,9.27
2022-10-10T11:54:50.289Z,10.30
2022-10-10T11:57:43.707Z,9.45
2022-10-10T12:00:17.031Z,9.43
2022-10-10T12:02:45.237Z,9.27
2022-10-10T12:05:38.502Z,9.93
2022-10-10T12:08:08.971Z,11.93
2022-10-10T12:10:39.499Z,10.80
2022-10-10T12:13:22.318Z,9.67
2022-10-10T12:15:51.958Z,11.00
2022-10-10T12:18:30.513Z,11.18
2022-10-10T12:21:08.323Z,12.88
2022-10-10T12:23:35.731Z,12.45
2022-10-10T12:26:10.141Z,12.85
2022-10-10T12:29:04.623Z,9.35
2022-10-10T12:31:38.714Z,11.38
2022-10-10T12:34:10.860Z,15.63
2022-10-10T12:36:40.649Z,12.10
2022-10-10T12:39:12.619Z,12.05
2022-10-10T12:41:47.501Z,13.93
2022-10-10T12:44:20.506Z,13.43
2022-10-10T12:46:50.521Z,13.80
2022-10-10T12:49:17.669Z,15.65
2022-10-10T12:52:01.633Z,12.85
2022-10-10T12:54:30.986Z,13.02
2022-10-10T12:57:16.468Z,14.68
2022-10-10T12:59:46.556Z,13.23
2022-10-10T13:02:25.284Z,12.38
2022-10-10T13:04:55.174Z,10.52
2022-10-10T13:07:23.219Z,13.85
2022-10-10T13:09:51.625Z,14.10
2022-10-10T13:12:23.575Z,14.45
2022-10-10T13:14:50.605Z,14.05
2022-10-10T13:17:22.561Z,11.18
2022-10-10T13:19:49.818Z,13.07
2022-10-10T13:22:17.438Z,15.82
2022-10-10T13:24:47.331Z,14.50
2022-10-10T13:27:19.029Z,10.55
2022-10-10T13:29:46.324Z,10.35
2022-10-10T13:32:17.743Z,10.73
2022-10-10T13:34:47.507Z,10.30
2022-10-10T13:37:15.467Z,10.20
2022-10-10T13:39:46.968Z,9.13
2022-10-10T13:42:34.290Z,10.27
2022-10-10T13:45:03.133Z,10.75
2022-10-10T13:47:48.737Z,11.20
2022-10-10T13:50:32.586Z,10.97
2022-10-10T13:53:18.168Z,12.40
2022-10-10T13:55:45.346Z,11.52
2022-10-10T13:58:15.187Z,10.63
2022-10-10T14:00:42.225Z,9.23
2022-10-10T14:03:16.158Z,11.52
2022-10-10T14:05:44.818Z,10.77
2022-10-10T14:08:20.113Z,10.15
2022-10-10T14:11:03.067Z,10.40
2022-10-10T14:13:34.027Z,8.80
2022-10-10T14:16:12.791Z,8.10
2022-10-10T14:18:39.847Z,6.63
2022-10-10T14:21:10.926Z,8.27
2022-10-10T14:23:38.280Z,6.75
2022-10-10T14:26:06.652Z,4.03
2022-10-10T14:28:34.684Z,4.13
2022-10-10T14:31:04.549Z,4.15
2022-10-10T14:33:31.939Z,3.73
2022-10-10T14:36:02.464Z,4.68
2022-10-10T14:41:27.016Z,6.03
2022-10-10T14:43:54.083Z,4.32
2022-10-10T14:46:34.252Z,5.20
2022-10-10T14:49:01.258Z,4.38
2022-10-10T14:51:33.590Z,5.28
2022-10-10T14:54:09.968Z,3.33
2022-10-10T14:57:07.254Z,4.80
2022-10-10T14:59:48.534Z,3.60
2022-10-10T15:02:18.344Z,2.72
2022-10-10T15:04:45.411Z,3.75
2022-10-10T15:07:14.235Z,5.32
2022-10-10T15:12:37.235Z,7.07
2022-10-10T15:15:04.530Z,7.32
2022-10-10T15:17:34.180Z,8.98
2022-10-10T15:20:01.886Z,6.95
2022-10-10T15:22:30.438Z,10.02
2022-10-10T15:25:00.427Z,9.43
2022-10-10T15:27:32.568Z,6.97
2022-10-10T15:30:01.952Z,9.27
2022-10-10T15:32:29.155Z,11.88
2022-10-10T15:34:58.554Z,9.40
2022-10-10T15:37:26.618Z,8.10
2022-10-10T15:39:53.648Z,11.63
2022-10-10T15:42:23.034Z,9.02
2022-10-10T15:44:50.917Z,9.43
2022-10-10T15:47:19.099Z,11.25
2022-10-10T15:49:46.227Z,9.00
2022-10-10T15:52:13.477Z,12.57
2022-10-10T15:54:40.940Z,13.70
2022-10-10T15:57:08.164Z,10.98
2022-10-10T15:59:37.981Z,14.00
2022-10-10T16:02:07.756Z,12.37
2022-10-10T16:04:34.780Z,16.52
2022-10-10T16:07:25.399Z,19.52
2022-10-10T16:09:52.910Z,17.10
2022-10-10T16:12:21.794Z,20.30
2022-10-10T16:14:48.893Z,18.07
2022-10-10T16:17:19.492Z,12.10
2022-10-10T16:19:49.450Z,14.70
2022-10-10T16:22:16.484Z,13.50
2022-10-10T16:24:53.900Z,19.30
2022-10-10T16:27:32.085Z,20.65
2022-10-10T16:30:01.804Z,22.83
2022-10-10T16:32:28.843Z,17.48
2022-10-10T16:34:58.611Z,15.33
2022-10-10T16:37:25.658Z,17.08
2022-10-10T16:39:54.740Z,14.67
2022-10-10T16:42:21.789Z,16.50
2022-10-10T16:44:51.630Z,15.85
2022-10-10T16:47:18.749Z,15.18
2022-10-10T16:49:54.570Z,16.27
2022-10-10T16:52:23.381Z,16.23
2022-10-10T16:54:52.382Z,17.65
2022-10-10T16:57:19.761Z,13.88
2022-10-10T16:59:46.821Z,13.45
2022-10-10T17:02:16.692Z,15.68
2022-10-10T17:04:43.737Z,13.75
2022-10-10T17:07:15.370Z,17.93
2022-10-10T17:09:42.414Z,18.63
2022-10-10T17:12:09.415Z,14.85
2022-10-10T17:14:39.002Z,17.73
2022-10-10T17:17:13.753Z,15.80
2022-10-10T17:19:43.331Z,18.42
2022-10-10T17:22:10.332Z,16.88
2022-10-10T17:24:37.512Z,16.95
2022-10-10T17:27:05.038Z,15.02
2022-10-10T17:29:32.214Z,14.95
2022-10-10T17:32:06.280Z,15.82
2022-10-10T17:34:34.011Z,15.48
2022-10-10T17:37:02.142Z,14.05
2022-10-10T17:39:31.900Z,17.60
2022-10-10T17:42:02.095Z,15.68
2022-10-10T17:44:29.410Z,17.50
2022-10-10T17:47:04.907Z,14.93
2022-10-10T17:49:35.163Z,21.23
2022-10-10T17:52:04.249Z,18.17
2022-10-10T17:54:31.359Z,18.67
2022-10-10T17:57:05.977Z,18.80
2022-10-10T17:59:33.037Z,20.30
2022-10-10T18:02:04.508Z,17.90
2022-10-10T18:04:31.616Z,18.00
2022-10-10T18:07:11.723Z,22.30
2022-10-10T18:09:38.840Z,23.88
2022-10-10T18:12:07.556Z,23.85
2022-10-10T18:14:35.782Z,22.67
2022-10-10T18:17:02.953Z,20.00
2022-10-10T18:19:30.110Z,58.90
2022-10-10T18:21:57.156Z,53.97
2022-10-10T18:24:24.167Z,29.60
2022-10-10T18:26:53.619Z,28.98
2022-10-10T18:29:20.692Z,24.45
2022-10-10T18:31:47.800Z,19.88
2022-10-10T18:34:14.881Z,24.88
2022-10-10T18:36:46.109Z,23.00
2022-10-10T18:39:15.180Z,20.48
2022-10-10T18:41:42.252Z,20.17
2022-10-10T18:44:12.865Z,19.05
2022-10-10T18:46:40.339Z,22.85
2022-10-10T18:49:11.716Z,22.55
2022-10-10T18:51:41.244Z,22.52
2022-10-10T18:54:08.590Z,24.48
2022-10-10T18:56:37.276Z,41.03
2022-10-10T18:59:05.730Z,37.53
2022-10-10T19:01:36.362Z,23.83
2022-10-10T19:04:06.790Z,52.85
2022-10-10T19:06:36.791Z,41.38
2022-10-10T19:09:04.522Z,50.93
2022-10-10T19:11:35.697Z,37.25
2022-10-10T19:14:06.359Z,28.90
2022-10-10T19:16:35.910Z,29.75
2022-10-10T19:19:03.489Z,27.83
2022-10-10T19:21:31.610Z,18.10
2022-10-10T19:24:02.266Z,18.75
2022-10-10T19:26:38.624Z,19.33
2022-10-10T19:29:07.310Z,19.38
2022-10-10T19:34:50.759Z,21.07
2022-10-10T19:37:20.335Z,18.75
2022-10-10T19:39:47.346Z,18.88
2022-10-10T19:42:20.489Z,16.40
2022-10-10T19:44:50.703Z,21.63
2022-10-10T19:47:19.307Z,17.37
2022-10-10T19:49:46.355Z,16.77
2022-10-10T19:52:13.417Z,16.00
2022-10-10T19:54:40.518Z,17.67
2022-10-10T19:57:08.324Z,17.73
2022-10-10T19:59:39.072Z,19.48
2022-10-10T20:02:07.709Z,29.63
2022-10-10T20:04:41.892Z,24.63
2022-10-10T20:07:11.680Z,25.63
2022-10-10T20:09:39.631Z,23.45
2022-10-10T20:12:07.288Z,16.57
2022-10-10T20:14:35.609Z,16.55
2022-10-10T20:17:07.442Z,18.42
2022-10-10T20:19:34.888Z,16.40
2022-10-10T20:22:02.091Z,16.85
2022-10-10T20:24:33.179Z,15.82
2022-10-10T20:27:28.872Z,17.13
2022-10-10T20:30:23.988Z,16.23
2022-10-10T20:33:02.888Z,17.98
2022-10-10T20:35:31.748Z,17.60
2022-10-10T20:37:58.855Z,19.90
2022-10-10T20:40:27.662Z,18.00
2022-10-10T20:42:55.242Z,17.92
2022-10-10T20:45:22.304Z,20.75
2022-10-10T20:47:50.070Z,18.02
2022-10-10T20:50:17.085Z,18.25
2022-10-10T20:52:47.067Z,16.20
2022-10-10T20:55:14.114Z,15.02
2022-10-10T20:57:41.141Z,17.10
2022-10-10T21:00:08.540Z,17.83
2022-10-10T21:02:38.476Z,16.13
2022-10-10T21:11:39.149Z,13.73
2022-10-10T21:14:43.825Z,14.13
2022-10-10T21:24:56.466Z,15.35
2022-10-10T21:27:33.805Z,19.70
2022-10-10T21:30:05.990Z,18.38
2022-10-10T21:32:34.626Z,18.30
2022-10-10T21:40:56.111Z,17.02
2022-10-10T21:43:23.211Z,15.80
2022-10-10T21:45:50.485Z,17.37
2022-10-10T21:48:20.475Z,18.30
2022-10-10T21:51:01.065Z,13.80
2022-10-10T21:53:28.628Z,18.33
2022-10-10T21:55:56.076Z,15.90
2022-10-10T21:58:26.382Z,14.93
2022-10-10T22:00:53.465Z,14.35
2022-10-10T22:03:20.556Z,14.15
2022-10-10T22:05:47.548Z,16.85
2022-10-10T22:08:14.574Z,17.77
2022-10-10T22:10:41.814Z,15.30
2022-10-10T22:13:08.831Z,15.95
2022-10-10T22:15:39.207Z,17.80
2022-10-10T22:18:11.222Z,13.57
2022-10-10T22:20:44.827Z,14.68
2022-10-10T22:23:12.069Z,15.68
2022-10-10T22:25:43.937Z,15.50
2022-10-10T22:28:14.354Z,17.65
2022-10-10T22:30:44.128Z,17.88
2022-10-10T22:33:11.189Z,17.10
2022-10-10T22:35:39.336Z,17.42
2022-10-10T22:38:09.205Z,14.98
2022-10-10T22:40:36.267Z,13.05
2022-10-10T22:43:03.342Z,12.20
2022-10-10T22:45:33.547Z,16.33
2022-10-10T22:48:00.564Z,16.67
2022-10-10T22:50:27.639Z,17.63
2022-10-10T22:52:54.699Z,15.65
2022-10-10T22:55:21.876Z,13.90
2022-10-10T22:57:48.900Z,18.92
2022-10-10T23:00:16.720Z,14.05
2022-10-10T23:02:46.632Z,16.95
2022-10-10T23:05:13.698Z,17.77
2022-10-10T23:07:40.772Z,17.27
2022-10-10T23:10:10.957Z,13.35
2022-10-10T23:12:38.164Z,15.93
2022-10-10T23:15:08.255Z,18.38
2022-10-10T23:17:35.970Z,14.90
2022-10-10T23:20:03.028Z,16.52
2022-10-10T23:22:38.976Z,13.85
2022-10-10T23:25:06.222Z,15.77
2022-10-10T23:27:36.046Z,15.00
2022-10-10T23:30:03.113Z,16.90
2022-10-10T23:32:33.303Z,15.38
2022-10-10T23:35:06.699Z,15.32
2022-10-10T23:37:33.803Z,15.98
2022-10-10T23:40:00.916Z,14.35
2022-10-10T23:42:30.800Z,16.53
2022-10-10T23:45:07.228Z,17.30
2022-10-10T23:47:40.293Z,15.95
2022-10-10T23:50:07.576Z,16.75
2022-10-10T23:52:34.903Z,17.00
2022-10-10T23:55:01.967Z,12.90
2022-10-10T23:57:29.087Z,15.32
2022-10-10T23:59:56.365Z,13.98
